Time;durP1;ratioP1;P1;durP2;ratioP2;P2;SDS_P1;SDS_P2;PMS_P1;PMS_P2;Temp;Humidity;BMP_temperature;BMP_pressure;BME280_temperature;BME280_humidity;BME280_pressure;Samples;Min_cycle;Max_cycle;Signal;HPM_P1;HPM_P2
2022/09/25 00:00:56;;;;;;;44.20;23.45;;;;;;;10.03;80.16;98343.58;1700860;84;25813;-62
2022/09/25 00:03:25;;;;;;;41.00;22.32;;;;;;;10.03;80.11;98343.02;1701046;84;26707;-62
2022/09/25 00:05:54;;;;;;;34.43;19.75;;;;;;;10.09;80.13;98341.48;1701188;84;25698;-62
2022/09/25 00:08:21;;;;;;;33.80;19.57;;;;;;;10.15;80.03;98334.19;1668844;84;27396;-62
2022/09/25 00:10:50;;;;;;;29.45;17.65;;;;;;;10.23;79.97;98339.99;1693513;84;25612;-63
2022/09/25 00:13:20;;;;;;;30.50;16.97;;;;;;;10.25;79.78;98339.13;1693964;84;25486;-62
2022/09/25 00:15:50;;;;;;;28.83;16.95;;;;;;;10.27;79.69;98341.77;1693866;84;25683;-62
2022/09/25 00:19:48;;;;;;;28.67;17.17;;;;;;;10.31;79.73;98339.77;1693950;84;25611;-63
2022/09/25 00:20:46;;;;;;;29.67;16.93;;;;;;;10.34;79.69;98341.87;1693558;84;25931;-62
2022/09/25 00:23:13;;;;;;;28.23;15.70;;;;;;;10.34;79.64;98337.20;1693701;84;25635;-63
2022/09/25 00:25:39;;;;;;;28.57;15.58;;;;;;;10.34;79.76;98334.47;1693573;84;25449;-62
2022/09/25 00:28:06;;;;;;;22.90;14.43;;;;;;;10.34;79.61;98335.84;1693532;84;25735;-64
2022/09/25 00:30:33;;;;;;;29.75;16.73;;;;;;;10.32;79.60;98338.08;1693590;84;25673;-62
2022/09/25 00:33:00;;;;;;;37.20;19.65;;;;;;;10.31;79.57;98339.77;1693963;84;27459;-63
2022/09/25 00:35:27;;;;;;;27.73;15.50;;;;;;;10.29;79.60;98332.69;1693495;84;25620;-62
2022/09/25 00:37:53;;;;;;;27.45;15.93;;;;;;;10.32;79.52;98334.52;1693581;84;25712;-63
2022/09/25 00:40:20;;;;;;;25.25;15.30;;;;;;;10.36;79.43;98330.83;1693737;84;25876;-62
2022/09/25 00:42:47;;;;;;;24.87;15.55;;;;;;;10.41;79.38;98333.42;1693820;84;25670;-62
2022/09/25 00:45:22;;;;;;;24.63;15.03;;;;;;;10.46;79.39;98333.05;1693564;84;27551;-63
2022/09/25 00:47:56;;;;;;;24.70;15.35;;;;;;;10.49;79.26;98326.92;1693501;84;25648;-63
2022/09/25 00:50:28;;;;;;;25.48;15.60;;;;;;;10.51;79.43;98318.62;1694017;84;25457;-63
2022/09/25 00:53:02;;;;;;;24.40;14.85;;;;;;;10.61;79.39;98322.17;1693859;84;25678;-62
2022/09/25 00:55:28;;;;;;;24.70;15.88;;;;;;;10.65;79.09;98327.27;1693718;84;25426;-63
2022/09/25 00:57:57;;;;;;;24.27;15.72;;;;;;;10.66;79.04;98322.84;1694124;84;27421;-63
2022/09/25 01:00:24;;;;;;;23.18;14.95;;;;;;;10.64;78.94;98322.89;1693776;84;25437;-63
2022/09/25 01:02:53;;;;;;;25.08;15.50;;;;;;;10.57;79.11;98312.44;1693975;84;25466;-62
2022/09/25 01:05:24;;;;;;;30.80;16.27;;;;;;;10.54;79.13;98319.34;1693746;84;26116;-62
2022/09/25 01:07:52;;;;;;;27.77;16.27;;;;;;;10.50;79.12;98316.20;1693470;84;25464;-63
2022/09/25 01:10:20;;;;;;;28.10;16.37;;;;;;;10.44;79.35;98314.71;1693315;84;28380;-62
2022/09/25 01:12:48;;;;;;;27.40;16.45;;;;;;;10.40;79.27;98307.72;1693211;84;25505;-62
2022/09/25 01:15:22;;;;;;;30.77;17.77;;;;;;;10.38;79.35;98308.59;1693086;84;25667;-62
2022/09/25 01:18:03;;;;;;;58.33;25.05;;;;;;;10.38;79.36;98309.41;1693343;84;26718;-62
2022/09/25 01:20:55;;;;;;;61.23;28.32;;;;;;;10.42;79.44;98309.00;1693724;84;33038;-63
2022/09/25 01:24:07;;;;;;;46.45;22.95;;;;;;;10.46;79.40;98309.76;1693264;84;28020;-62
2022/09/25 01:27:14;;;;;;;39.60;21.37;;;;;;;10.48;79.23;98307.52;1667688;84;25707;-63
2022/09/25 01:30:04;;;;;;;36.95;20.52;;;;;;;10.40;79.36;98307.72;1693518;84;25694;-63
2022/09/25 01:32:56;;;;;;;32.95;19.25;;;;;;;10.38;79.60;98299.82;1692442;84;26557;-64
2022/09/25 01:35:55;;;;;;;33.63;19.57;;;;;;;10.35;79.72;98295.54;1669247;85;25547;-63
2022/09/25 01:38:42;;;;;;;31.82;19.40;;;;;;;10.34;79.68;98299.41;1669154;86;27482;-63
2022/09/25 01:41:13;;;;;;;35.90;21.33;;;;;;;10.27;79.75;98302.62;1669084;86;25777;-64
2022/09/25 01:43:57;;;;;;;43.73;24.98;;;;;;;10.31;79.91;98305.53;1669285;85;25520;-63
2022/09/25 01:46:31;;;;;;;44.75;25.45;;;;;;;10.35;79.83;98309.23;1668973;86;26563;-63
2022/09/25 01:49:12;;;;;;;60.38;32.35;;;;;;;10.33;79.85;98308.77;1669062;86;25706;-63
2022/09/25 01:51:46;;;;;;;92.08;45.67;;;;;;;10.39;80.24;98311.59;1668335;86;27486;-63
2022/09/25 01:54:17;;;;;;;90.38;43.52;;;;;;;10.44;80.03;98311.42;1669347;85;25497;-64
2022/09/25 01:56:54;;;;;;;44.05;24.10;;;;;;;10.51;79.86;98309.61;1669172;86;25564;-64
2022/09/25 01:59:58;;;;;;;44.98;24.60;;;;;;;10.42;79.61;98304.89;1669949;85;25868;-64
2022/09/25 02:02:31;;;;;;;110.05;48.42;;;;;;;10.35;79.91;98307.31;1669032;86;25695;-64
2022/09/25 02:05:06;;;;;;;68.02;34.10;;;;;;;10.28;80.06;98307.78;1668948;86;28396;-64
2022/09/25 02:07:41;;;;;;;58.78;28.85;;;;;;;10.25;80.24;98308.41;1666787;84;26318;-64
2022/09/25 02:10:21;;;;;;;49.53;26.30;;;;;;;10.20;80.36;98311.33;1663003;86;25670;-64
2022/09/25 02:12:51;;;;;;;51.73;27.93;;;;;;;10.20;80.45;98304.48;1671293;85;25749;-63
2022/09/25 02:15:25;;;;;;;87.97;42.65;;;;;;;10.22;80.37;98314.53;1673557;85;25382;-64
2022/09/25 02:20:49;;;;;;;105.67;45.92;;;;;;;10.21;80.44;98308.00;1672505;85;25762;-64
2022/09/25 02:23:26;;;;;;;85.65;38.20;;;;;;;10.15;80.61;98309.55;1672903;85;25462;-64
2022/09/25 02:25:58;;;;;;;82.88;36.13;;;;;;;10.10;80.69;98308.31;1672854;85;26062;-63
2022/09/25 02:28:25;;;;;;;84.10;37.30;;;;;;;10.04;80.96;98307.67;1672539;85;25409;-62
2022/09/25 02:30:55;;;;;;;90.77;41.65;;;;;;;9.98;81.10;98309.48;1672655;85;27424;-63
2022/09/25 02:33:22;;;;;;;69.67;32.05;;;;;;;9.97;81.07;98309.25;1673768;85;25515;-62
2022/09/25 02:35:48;;;;;;;68.57;33.60;;;;;;;9.95;81.10;98311.49;1672699;85;25705;-62
2022/09/25 02:38:16;;;;;;;53.45;27.62;;;;;;;10.01;81.27;98300.09;1672787;85;26476;-62
2022/09/25 02:41:06;;;;;;;52.53;27.52;;;;;;;10.09;80.96;98303.97;1673233;85;25472;-62
2022/09/25 02:44:05;;;;;;;49.27;26.23;;;;;;;10.08;80.96;98300.19;1673197;85;27495;-62
2022/09/25 02:47:13;;;;;;;44.35;25.72;;;;;;;10.06;81.04;98296.95;1672821;85;25459;-61
2022/09/25 02:50:06;;;;;;;49.30;25.60;;;;;;;10.01;81.04;98297.36;1627577;88;25585;-62
2022/09/25 02:52:46;;;;;;;50.98;25.62;;;;;;;9.99;81.13;98294.12;1628202;88;25648;-62
2022/09/25 02:55:27;;;;;;;53.28;27.52;;;;;;;9.94;81.34;98296.20;1627926;88;25848;-63
2022/09/25 02:58:04;;;;;;;47.83;26.57;;;;;;;9.93;81.61;98295.97;1628044;88;28294;-62
2022/09/25 03:00:35;;;;;;;47.95;26.57;;;;;;;9.87;81.71;98289.81;1628197;88;25837;-63
2022/09/25 03:03:02;;;;;;;43.00;25.35;;;;;;;9.83;81.90;98297.06;1628295;88;25733;-62
2022/09/25 03:05:30;;;;;;;45.40;26.27;;;;;;;9.84;81.87;98297.33;1628067;88;25769;-62
2022/09/25 03:10:45;;;;;;;47.45;25.32;;;;;;;9.88;81.76;98289.50;1627856;87;25727;-62
2022/09/25 03:13:25;;;;;;;46.37;27.02;;;;;;;9.91;81.63;98294.92;1627750;88;25827;-62
2022/09/25 03:15:57;;;;;;;41.13;25.57;;;;;;;9.90;81.60;98291.37;1627875;88;25670;-61
2022/09/25 03:18:25;;;;;;;52.15;29.07;;;;;;;9.92;81.75;98288.31;1628052;88;26911;-62
2022/09/25 03:20:52;;;;;;;53.78;32.13;;;;;;;9.91;81.76;98281.23;1627794;88;25755;-62
2022/09/25 03:23:18;;;;;;;65.40;38.63;;;;;;;9.94;81.90;98290.18;1628330;88;27466;-62
2022/09/25 03:25:44;;;;;;;56.13;31.25;;;;;;;9.97;81.80;98291.47;1634188;86;25728;-62
2022/09/25 03:28:11;;;;;;;51.55;30.12;;;;;;;9.88;81.95;98286.77;1665881;86;25698;-63
2022/09/25 03:30:39;;;;;;;52.25;29.77;;;;;;;9.89;82.05;98287.03;1665851;86;26644;-62
2022/09/25 03:33:11;;;;;;;46.63;27.73;;;;;;;9.91;82.07;98284.76;1665880;86;25651;-62
2022/09/25 03:35:38;;;;;;;44.20;27.00;;;;;;;9.92;81.90;98278.73;1665621;85;27455;-62
2022/09/25 03:38:07;;;;;;;44.33;25.68;;;;;;;9.97;81.86;98285.98;1665818;86;25843;-62
2022/09/25 03:40:33;;;;;;;40.30;24.23;;;;;;;9.98;81.80;98278.83;1665744;86;25679;-62
2022/09/25 03:42:59;;;;;;;39.13;24.32;;;;;;;9.98;81.89;98277.45;1665928;85;25822;-62
2022/09/25 03:45:26;;;;;;;42.43;25.65;;;;;;;9.96;82.03;98271.48;1666049;86;25462;-63
2022/09/25 03:47:51;;;;;;;45.60;26.25;;;;;;;9.93;82.19;98280.34;1665890;86;28381;-62
2022/09/25 03:50:17;;;;;;;48.08;27.17;;;;;;;9.89;82.25;98282.92;1665901;86;25651;-62
2022/09/25 03:52:44;;;;;;;47.50;28.23;;;;;;;9.93;82.28;98278.18;1665969;86;25678;-62
2022/09/25 03:55:10;;;;;;;45.33;26.77;;;;;;;9.92;82.19;98276.00;1665979;86;25759;-62
2022/09/25 03:57:38;;;;;;;46.50;26.52;;;;;;;9.90;82.24;98286.45;1665964;86;25676;-62
2022/09/25 04:00:06;;;;;;;47.78;26.80;;;;;;;9.95;82.46;98282.75;1665866;86;27579;-62
2022/09/25 04:02:32;;;;;;;43.15;26.45;;;;;;;10.00;82.42;98278.52;1665921;86;25474;-62
2022/09/25 04:04:59;;;;;;;39.13;25.00;;;;;;;10.04;82.09;98280.84;1665876;86;25641;-62
2022/09/25 04:07:25;;;;;;;41.83;25.17;;;;;;;10.06;82.19;98283.27;1669350;84;26701;-62
2022/09/25 04:09:51;;;;;;;40.35;24.10;;;;;;;10.06;82.19;98283.27;1693927;84;25407;-62
2022/09/25 04:12:17;;;;;;;43.17;24.47;;;;;;;10.11;82.58;98287.23;1693859;84;28244;-62
2022/09/25 04:14:45;;;;;;;45.78;25.68;;;;;;;10.18;82.56;98287.55;1693886;84;25678;-62
2022/09/25 04:17:11;;;;;;;43.42;25.65;;;;;;;10.27;82.30;98287.55;1693706;84;25511;-61
2022/09/25 04:19:37;;;;;;;44.88;25.75;;;;;;;10.31;82.36;98288.55;1693524;84;25846;-63
2022/09/25 04:22:03;;;;;;;45.05;26.48;;;;;;;10.37;82.17;98293.30;1694347;84;25597;-62
2022/09/25 04:24:47;;;;;;;47.35;26.87;;;;;;;10.37;81.91;98295.48;1694037;84;27610;-63
2022/09/25 04:27:20;;;;;;;45.67;25.88;;;;;;;10.31;82.06;98294.02;1693619;84;25463;-62
2022/09/25 04:29:47;;;;;;;42.83;25.23;;;;;;;10.28;82.23;98294.66;1693678;84;25685;-62
2022/09/25 04:35:01;;;;;;;42.40;24.87;;;;;;;10.38;82.11;98305.30;1693644;84;25426;-62
2022/09/25 04:37:27;;;;;;;43.68;24.98;;;;;;;10.40;82.19;98303.03;1693834;84;27370;-62
2022/09/25 04:39:56;;;;;;;35.92;19.87;;;;;;;10.41;82.04;98303.29;1693650;84;25688;-62
2022/09/25 04:42:23;;;;;;;29.45;17.50;;;;;;;10.43;81.88;98296.13;1693947;84;25666;-62
2022/09/25 04:44:55;;;;;;;27.20;16.25;;;;;;;10.47;81.75;98292.19;1693860;84;25736;-62
2022/09/25 04:47:23;;;;;;;20.08;12.80;;;;;;;10.47;81.47;98293.55;1693991;84;25604;-62
2022/09/25 04:49:49;;;;;;;19.40;11.85;;;;;;;10.49;81.17;98295.42;1693834;84;28148;-62
2022/09/25 04:52:18;;;;;;;17.57;11.03;;;;;;;10.51;81.01;98292.59;1693602;84;25674;-62
2022/09/25 04:54:46;;;;;;;17.57;10.48;;;;;;;10.54;80.95;98300.75;1693914;84;25677;-63
2022/09/25 04:57:19;;;;;;;16.37;10.08;;;;;;;10.55;80.85;98290.02;1693781;84;25730;-63
2022/09/25 04:59:57;;;;;;;14.87;8.35;;;;;;;10.56;80.67;98292.21;1693829;84;25620;-62
2022/09/25 05:02:32;;;;;;;23.85;13.55;;;;;;;10.58;80.60;98288.01;1693334;84;26842;-63
2022/09/25 05:05:03;;;;;;;28.38;16.70;;;;;;;10.63;80.55;98291.97;1693896;84;25657;-62
2022/09/25 05:07:35;;;;;;;33.45;20.95;;;;;;;10.68;80.80;98286.08;1694183;84;25434;-63
2022/09/25 05:10:11;;;;;;;42.30;25.72;;;;;;;10.59;81.31;98290.98;1701187;84;25892;-62
2022/09/25 05:12:47;;;;;;;42.13;24.98;;;;;;;10.52;81.36;98287.92;1700976;84;25639;-63
2022/09/25 05:15:14;;;;;;;40.65;24.10;;;;;;;10.50;81.38;98290.17;1700972;84;27471;-63
2022/09/25 05:17:40;;;;;;;45.70;26.15;;;;;;;10.50;81.47;98284.69;1701143;84;25683;-63
2022/09/25 05:20:08;;;;;;;44.23;26.75;;;;;;;10.48;81.69;98290.49;1701214;84;25505;-64
2022/09/25 05:22:34;;;;;;;41.92;27.40;;;;;;;10.45;81.95;98286.21;1701146;84;25784;-63
2022/09/25 05:25:00;;;;;;;40.63;26.02;;;;;;;10.42;82.10;98295.30;1701254;84;25914;-63
2022/09/25 05:27:25;;;;;;;40.88;23.77;;;;;;;10.44;82.13;98291.42;1701134;84;27515;-63
2022/09/25 05:29:51;;;;;;;37.83;22.90;;;;;;;10.40;82.01;98293.44;1701080;84;25436;-63
2022/09/25 05:32:17;;;;;;;33.25;22.52;;;;;;;10.35;82.12;98292.80;1701131;84;25612;-63
2022/09/25 05:34:43;;;;;;;37.73;22.65;;;;;;;10.29;82.12;98287.50;1700783;84;25758;-62
2022/09/25 05:37:09;;;;;;;38.10;23.12;;;;;;;10.26;82.24;98284.03;1701239;84;25486;-63
2022/09/25 05:39:35;;;;;;;34.48;21.42;;;;;;;10.25;82.37;98285.14;1701186;84;28158;-62
2022/09/25 05:42:02;;;;;;;47.23;26.62;;;;;;;10.28;82.41;98285.08;1701135;84;25618;-64
2022/09/25 05:44:28;;;;;;;47.60;26.93;;;;;;;10.30;82.62;98286.91;1701047;84;25445;-64
2022/09/25 05:46:59;;;;;;;40.23;24.75;;;;;;;10.32;82.82;98292.89;1701062;84;25756;-64
2022/09/25 05:49:22;;;;;;;39.75;26.50;;;;;;;10.34;83.05;98292.57;1700128;84;25482;-64
2022/09/25 05:51:49;;;;;;;85.17;48.13;;;;;;;10.42;83.24;98285.72;1701162;84;27453;-67
2022/09/25 05:54:14;;;;;;;72.87;45.28;;;;;;;10.50;83.45;98288.25;1701066;84;25531;-68
2022/09/25 05:56:41;;;;;;;81.08;49.38;;;;;;;10.57;83.45;98291.89;1701245;84;25622;-69
2022/09/25 05:59:07;;;;;;;139.72;68.15;;;;;;;10.65;83.54;98286.95;1701142;84;26698;-71
2022/09/25 06:01:33;;;;;;;40.38;24.95;;;;;;;10.73;83.67;98283.15;1701111;84;25492;-78
2022/09/25 06:04:00;;;;;;;42.00;25.77;;;;;;;10.75;83.94;98278.16;1701197;84;27484;-72
2022/09/25 06:06:30;;;;;;;47.15;26.33;;;;;;;10.77;85.10;98279.44;1700911;84;25602;-71
2022/09/25 06:08:56;;;;;;;64.87;32.60;;;;;;;10.81;85.48;98286.45;1697100;84;25655;-71
2022/09/25 06:11:22;;;;;;;43.10;24.20;;;;;;;10.85;85.79;98281.14;1693545;84;25766;-72
2022/09/25 06:13:49;;;;;;;46.70;24.80;;;;;;;10.80;85.45;98278.00;1693873;84;25625;-72
2022/09/25 06:16:18;;;;;;;51.95;25.97;;;;;;;10.82;86.11;98284.53;1693218;84;27474;-73
2022/09/25 06:18:51;;;;;;;58.68;27.40;;;;;;;10.86;86.17;98282.74;1693274;84;25438;-73
2022/09/25 06:21:14;;;;;;;34.80;18.15;;;;;;;10.90;86.43;98283.70;1692744;84;25466;-72
2022/09/25 06:23:45;;;;;;;86.90;54.53;;;;;;;10.96;86.37;98271.98;1693481;84;26500;-72
2022/09/25 06:26:20;;;;;;;69.67;37.55;;;;;;;11.02;86.52;98285.20;1693519;84;25501;-73
2022/09/25 06:28:46;;;;;;;20.23;12.95;;;;;;;11.10;86.56;98278.66;1693149;84;27426;-73
2022/09/25 06:31:12;;;;;;;44.70;18.32;;;;;;;11.14;85.73;98280.41;1693519;84;25826;-70
2022/09/25 06:33:38;;;;;;;29.65;17.48;;;;;;;11.21;85.28;98285.41;1693568;84;25678;-73
2022/09/25 06:36:05;;;;;;;36.48;20.27;;;;;;;11.26;84.54;98283.06;1693275;84;26766;-67
2022/09/25 06:38:36;;;;;;;96.72;64.95;;;;;;;11.30;84.57;98289.49;1693303;84;25682;-68
2022/09/25 06:41:00;;;;;;;41.13;27.73;;;;;;;11.37;84.73;98290.37;1666151;84;25910;-76
2022/09/25 06:43:27;;;;;;;38.17;19.45;;;;;;;11.46;84.87;98282.09;1693395;84;25627;-77
2022/09/25 06:45:53;;;;;;;34.45;18.12;;;;;;;11.52;84.76;98287.64;1693650;84;25603;-75
2022/09/25 06:48:20;;;;;;;32.48;17.73;;;;;;;11.56;84.72;98283.09;1693513;84;25912;-80
2022/09/25 06:50:51;;;;;;;26.48;14.47;;;;;;;11.59;84.57;98283.00;1693156;84;25435;-79
2022/09/25 06:53:19;;;;;;;;;;;;;;;11.61;84.33;98284.30;1696201;84;27223;-76
2022/09/25 06:55:46;;;;;;;34.15;16.70;;;;;;;11.65;84.55;98289.91;1693130;84;25438;-76
2022/09/25 06:58:17;;;;;;;26.05;14.18;;;;;;;11.66;84.25;98283.31;1693742;84;25457;-75
2022/09/25 07:00:48;;;;;;;20.92;12.28;;;;;;;11.65;84.48;98277.56;1693089;84;25749;-78
2022/09/25 07:06:02;;;;;;;12.40;8.95;;;;;;;11.63;84.41;98269.66;1693255;84;26601;-73
2022/09/25 07:08:29;;;;;;;12.13;8.70;;;;;;;11.65;84.53;98270.70;1694573;84;25783;-73
2022/09/25 07:10:57;;;;;;;15.38;8.45;;;;;;;11.63;84.50;98269.66;1701079;84;25694;-73
2022/09/25 07:13:28;;;;;;;12.13;8.08;;;;;;;11.65;84.85;98274.27;1701169;84;25689;-75
2022/09/25 07:16:01;;;;;;;16.50;10.65;;;;;;;11.64;85.23;98275.41;1701136;84;25697;-75
2022/09/25 07:18:29;;;;;;;11.57;8.38;;;;;;;11.66;85.27;98272.33;1701124;84;28336;-75
2022/09/25 07:21:03;;;;;;;9.83;7.78;;;;;;;11.70;85.25;98275.20;1700871;84;25533;-71
2022/09/25 07:23:30;;;;;;;27.20;18.30;;;;;;;11.73;85.09;98284.15;1701200;84;25622;-77
2022/09/25 07:26:09;;;;;;;20.12;11.83;;;;;;;11.79;85.18;98289.13;1700918;84;25720;-76
2022/09/25 07:28:38;;;;;;;21.57;13.93;;;;;;;11.86;85.81;98288.59;1701210;84;25537;-76
2022/09/25 07:31:14;;;;;;;17.32;11.18;;;;;;;11.91;86.26;98282.92;1701227;84;27535;-78
2022/09/25 07:33:40;;;;;;;27.87;14.43;;;;;;;12.02;86.21;98273.73;1701242;84;25517;-79
2022/09/25 07:36:08;;;;;;;15.13;9.25;;;;;;;12.16;85.84;98275.45;1701298;84;25509;-79
2022/09/25 07:38:35;;;;;;;11.65;7.85;;;;;;;12.24;85.32;98273.78;1700975;84;25877;-79
2022/09/25 07:41:07;;;;;;;15.15;9.35;;;;;;;12.35;85.44;98274.19;1700951;84;25682;-79
2022/09/25 07:43:34;;;;;;;23.95;15.03;;;;;;;12.51;86.50;98276.56;1701021;84;27417;-78
2022/09/25 07:46:00;;;;;;;17.42;12.28;;;;;;;12.59;85.78;98275.44;1701006;84;25639;-79
2022/09/25 07:48:29;;;;;;;22.07;12.30;;;;;;;12.59;85.66;98272.69;1701233;84;25681;-78
2022/09/25 07:51:05;;;;;;;17.30;10.82;;;;;;;12.65;85.72;98268.60;1700892;84;25493;-78
2022/09/25 07:53:32;;;;;;;18.02;11.43;;;;;;;12.75;85.60;98269.55;1700500;84;25614;-75
2022/09/25 07:56:00;;;;;;;18.15;10.63;;;;;;;12.89;85.16;98274.76;1701138;84;27506;-78
2022/09/25 07:58:28;;;;;;;18.80;11.22;;;;;;;12.98;84.64;98275.26;1701195;84;25650;-76
2022/09/25 08:01:00;;;;;;;24.55;18.42;;;;;;;13.06;84.87;98271.59;1701142;84;25473;-73
2022/09/25 08:03:27;;;;;;;82.85;34.00;;;;;;;13.16;84.59;98278.63;1701262;84;25770;-74
2022/09/25 08:06:04;;;;;;;64.47;24.10;;;;;;;13.14;84.83;98274.02;1700943;84;25674;-70
2022/09/25 08:08:33;;;;;;;39.40;18.95;;;;;;;13.20;84.78;98264.41;1700781;84;28471;-74
2022/09/25 08:11:08;;;;;;;28.65;15.08;;;;;;;13.22;84.82;98259.38;1700931;84;25622;-71
2022/09/25 08:13:37;;;;;;;31.87;14.15;;;;;;;13.19;85.05;98261.44;1701113;84;25614;-69
2022/09/25 08:16:12;;;;;;;29.50;15.45;;;;;;;13.33;84.59;98269.38;1701053;84;26540;-72
2022/09/25 08:18:44;;;;;;;57.67;37.10;;;;;;;13.38;83.93;98267.76;1700351;84;25520;-66
2022/09/25 08:21:13;;;;;;;37.53;20.15;;;;;;;13.52;84.00;98265.27;1701249;84;27373;-67
2022/09/25 08:23:41;;;;;;;41.50;23.12;;;;;;;13.69;84.22;98262.87;1701063;84;25525;-71
2022/09/25 08:26:08;;;;;;;26.50;16.55;;;;;;;13.82;83.70;98253.23;1701148;84;25707;-71
2022/09/25 08:28:35;;;;;;;28.17;17.20;;;;;;;13.98;83.78;98256.88;1700751;84;25754;-70
2022/09/25 08:31:02;;;;;;;27.13;15.65;;;;;;;14.18;83.84;98259.27;1701168;84;25679;-69
2022/09/25 08:33:33;;;;;;;28.73;17.40;;;;;;;14.39;82.85;98259.66;1700869;84;28687;-71
2022/09/25 08:36:02;;;;;;;24.25;15.23;;;;;;;14.54;82.75;98257.33;1701074;84;25468;-72
2022/09/25 08:38:32;;;;;;;21.68;13.68;;;;;;;14.86;82.25;98255.26;1701170;84;25429;-71
2022/09/25 08:41:07;;;;;;;17.77;11.78;;;;;;;15.07;80.88;98248.13;1701015;84;25512;-69
2022/09/25 08:43:39;;;;;;;19.10;13.22;;;;;;;15.29;80.77;98246.70;1701304;84;25466;-71
2022/09/25 08:49:01;;;;;;;18.23;11.25;;;;;;;15.59;80.53;98249.61;1700897;84;25420;-70
2022/09/25 08:51:33;;;;;;;12.47;8.98;;;;;;;15.75;79.97;98234.38;1700892;84;25524;-68
2022/09/25 08:54:00;;;;;;;16.35;10.32;;;;;;;16.00;80.01;98241.09;1701097;84;26394;-71
2022/09/25 08:56:31;;;;;;;17.98;10.53;;;;;;;16.28;79.61;98237.36;1701109;84;25614;-72
2022/09/25 08:59:09;;;;;;;12.75;8.60;;;;;;;16.68;79.22;98235.39;1701116;84;27611;-70
2022/09/25 09:01:52;;;;;;;8.23;6.83;;;;;;;17.04;77.11;98222.80;1700055;84;25737;-72
2022/09/25 09:04:35;;;;;;;8.73;6.35;;;;;;;17.46;76.92;98227.85;1677716;85;25614;-70
2022/09/25 09:07:06;;;;;;;9.43;6.80;;;;;;;17.94;73.02;98232.34;1699706;84;26689;-70
2022/09/25 09:09:41;;;;;;;17.10;9.50;;;;;;;18.49;74.14;98223.39;1700892;84;25690;-69
2022/09/25 09:12:21;;;;;;;12.60;9.95;;;;;;;19.08;73.68;98230.37;1650028;86;28665;-70
2022/09/25 09:14:51;;;;;;;12.50;8.13;;;;;;;19.78;74.10;98228.34;1700435;84;25616;-66
2022/09/25 09:17:24;;;;;;;15.88;10.30;;;;;;;20.31;69.32;98232.45;1677772;85;25622;-67
2022/09/25 09:20:02;;;;;;;8.83;6.47;;;;;;;20.29;64.99;98239.80;1700369;84;25750;-67
2022/09/25 09:22:34;;;;;;;11.03;7.87;;;;;;;20.11;66.15;98231.36;1677478;85;25466;-66
2022/09/25 09:25:09;;;;;;;15.58;11.68;;;;;;;20.16;65.00;98231.59;1700938;84;28202;-64
2022/09/25 09:28:09;;;;;;;9.10;8.10;;;;;;;19.82;65.15;98232.55;1701143;84;25610;-66
2022/09/25 09:30:53;;;;;;;17.10;10.95;;;;;;;19.74;66.87;98233.67;1701077;84;25924;-66
2022/09/25 09:33:45;;;;;;;24.15;14.58;;;;;;;19.68;67.11;98223.52;1701145;84;26253;-66
2022/09/25 09:36:47;;;;;;;9.08;6.50;;;;;;;19.55;66.05;98227.21;1697711;84;25691;-66
2022/09/25 09:39:28;;;;;;;7.42;6.25;;;;;;;19.48;66.27;98215.44;1670886;85;28568;-66
2022/09/25 09:42:11;;;;;;;9.18;7.25;;;;;;;19.49;65.37;98218.41;1661111;86;25700;-66
2022/09/25 09:45:27;;;;;;;9.03;7.67;;;;;;;19.53;66.93;98222.03;1631010;87;25811;-66
2022/09/25 09:48:20;;;;;;;11.00;8.38;;;;;;;19.70;65.09;98208.66;1661710;86;25801;-66
2022/09/25 09:50:52;;;;;;;8.08;7.25;;;;;;;19.97;66.77;98210.41;1630042;88;25695;-67
2022/09/25 09:53:45;;;;;;;7.97;7.15;;;;;;;20.22;65.11;98211.95;1662046;86;27461;-66
2022/09/25 09:56:30;;;;;;;19.40;14.83;;;;;;;20.25;63.92;98213.95;1631179;88;25524;-64
2022/09/25 09:59:00;;;;;;;9.00;7.42;;;;;;;20.21;63.14;98207.59;1662018;86;25497;-65
2022/09/25 10:01:34;;;;;;;7.90;6.60;;;;;;;20.05;63.99;98209.28;1631607;88;26482;-66
2022/09/25 10:04:17;;;;;;;7.75;5.92;;;;;;;19.91;63.51;98207.98;1662087;86;25803;-65
2022/09/25 10:06:51;;;;;;;9.98;7.78;;;;;;;19.65;61.62;98211.20;1631050;88;27450;-66
2022/09/25 10:09:18;;;;;;;9.15;7.15;;;;;;;19.44;64.85;98206.28;1662541;85;25852;-66
2022/09/25 10:11:48;;;;;;;9.18;7.20;;;;;;;19.20;64.08;98202.12;1683146;85;25560;-65
2022/09/25 10:14:21;;;;;;;7.53;6.47;;;;;;;19.09;64.28;98211.16;1683571;85;32831;-65
2022/09/25 10:16:52;;;;;;;9.25;6.75;;;;;;;19.00;62.75;98198.14;1683221;85;25695;-66
2022/09/25 10:19:48;;;;;;;9.60;6.83;;;;;;;18.87;64.57;98203.97;1689552;84;27456;-66
2022/09/25 10:22:26;;;;;;;10.28;7.97;;;;;;;18.74;63.98;98199.88;1693038;84;25644;-66
2022/09/25 10:25:04;;;;;;;11.68;8.38;;;;;;;18.69;65.43;98197.63;1693273;84;25443;-66
2022/09/25 10:27:48;;;;;;;9.15;7.55;;;;;;;18.56;63.77;98197.11;1693074;84;27003;-67
2022/09/25 10:30:21;;;;;;;20.00;14.15;;;;;;;18.38;64.41;98194.13;1693171;84;25695;-67
2022/09/25 10:33:06;;;;;;;11.33;8.05;;;;;;;18.12;64.26;98194.98;1693428;84;27475;-67
2022/09/25 10:35:44;;;;;;;14.05;9.73;;;;;;;18.02;64.31;98196.42;1690691;84;25666;-66
2022/09/25 10:38:31;;;;;;;14.13;9.13;;;;;;;17.95;65.59;98191.58;1693140;84;25529;-66
2022/09/25 10:41:12;;;;;;;13.45;9.93;;;;;;;17.98;66.79;98183.89;1686011;84;25642;-65
2022/09/25 10:43:59;;;;;;;11.80;8.08;;;;;;;18.04;66.61;98184.36;1693206;84;25610;-66
2022/09/25 10:52:13;;;;;;;15.25;9.78;;;;;;;19.09;63.00;98182.00;1693294;84;25660;-69
2022/09/25 10:54:39;;;;;;;12.78;8.83;;;;;;;19.24;63.45;98177.36;1693570;84;26484;-71
2022/09/25 10:57:20;;;;;;;9.45;7.67;;;;;;;19.64;63.82;98177.66;1693309;84;25460;-68
2022/09/25 10:59:49;;;;;;;7.80;6.55;;;;;;;20.04;63.23;98181.27;1649834;86;27399;-69
2022/09/25 11:02:36;;;;;;;7.00;5.95;;;;;;;20.67;60.73;98173.35;1693493;84;25619;-68
2022/09/25 11:05:06;;;;;;;7.90;6.42;;;;;;;21.16;59.39;98180.78;1685787;84;25504;-67
2022/09/25 11:07:33;;;;;;;7.55;6.00;;;;;;;21.30;58.53;98182.00;1693529;84;25854;-67
2022/09/25 11:10:00;;;;;;;6.92;5.83;;;;;;;21.38;57.96;98187.75;1693051;84;25462;-67
2022/09/25 11:12:31;;;;;;;8.83;6.42;;;;;;;21.40;58.25;98186.77;1693544;84;27466;-65
2022/09/25 11:15:04;;;;;;;7.42;6.60;;;;;;;21.58;58.98;98188.73;1693179;84;25619;-67
2022/09/25 11:17:41;;;;;;;7.20;6.37;;;;;;;21.80;57.45;98192.91;1652153;86;25693;-66
2022/09/25 11:20:28;;;;;;;8.68;6.28;;;;;;;21.93;57.61;98181.52;1693471;84;25683;-66
2022/09/25 11:23:22;;;;;;;9.33;6.83;;;;;;;21.93;55.83;98170.95;1693182;84;25622;-66
2022/09/25 11:26:00;;;;;;;9.33;6.87;;;;;;;22.18;56.26;98168.09;1693053;84;27937;-65
2022/09/25 11:28:48;;;;;;;9.78;8.15;;;;;;;22.38;55.84;98169.59;1692634;84;25769;-65
2022/09/25 11:31:31;;;;;;;7.85;6.50;;;;;;;22.38;54.10;98170.39;1693304;84;25711;-65
2022/09/25 11:34:38;;;;;;;9.18;8.13;;;;;;;22.40;55.39;98172.16;1693565;84;26706;-66
2022/09/25 11:37:42;;;;;;;13.03;10.85;;;;;;;22.44;53.92;98167.97;1693280;84;25624;-66
2022/09/25 11:43:25;;;;;;;9.85;7.65;;;;;;;22.50;54.01;98150.18;1674943;85;25657;-65
2022/09/25 11:45:57;;;;;;;7.33;6.08;;;;;;;22.73;54.24;98148.28;1674762;85;25576;-65
2022/09/25 11:48:36;;;;;;;7.03;5.40;;;;;;;22.85;53.64;98140.02;1674533;85;26940;-65
2022/09/25 11:51:21;;;;;;;22.48;17.32;;;;;;;22.94;53.45;98135.36;1674974;85;25735;-65
2022/09/25 11:54:15;;;;;;;5.85;5.25;;;;;;;23.01;52.18;98135.91;1674426;85;27528;-65
2022/09/25 11:57:05;;;;;;;7.83;5.47;;;;;;;22.80;51.14;98128.67;1674579;85;25796;-64
2022/09/25 11:59:59;;;;;;;13.00;9.98;;;;;;;23.05;52.89;98125.49;1675383;85;26020;-64
2022/09/25 12:02:49;;;;;;;11.25;7.33;;;;;;;23.33;51.51;98125.66;1675103;85;25702;-64
2022/09/25 12:05:36;;;;;;;7.47;6.05;;;;;;;23.34;51.49;98120.27;1675249;85;25725;-63
2022/09/25 12:08:11;;;;;;;8.68;6.28;;;;;;;23.10;52.35;98120.06;1674927;85;27487;-65
2022/09/25 12:11:02;;;;;;;8.48;6.90;;;;;;;22.80;52.34;98114.70;1672359;85;25717;-65
2022/09/25 12:13:53;;;;;;;11.05;7.40;;;;;;;22.61;52.70;98120.24;1671674;85;25705;-65